Time;durP1;ratioP1;P1;durP2;ratioP2;P2;SDS_P1;SDS_P2;PMS_P1;PMS_P2;Temp;Humidity;BMP_temperature;BMP_pressure;BME280_temperature;BME280_humidity;BME280_pressure;Samples;Min_cycle;Max_cycle;Signal;HPM_P1;HPM_P2
2022/10/30 00:04:42;;;;;;;12.68;5.43;;;21.20;92.60;;;;;;10444878;28;20136;-32
2022/10/30 00:09:45;;;;;;;11.23;4.35;;;20.50;93.90;;;;;;10446307;28;20130;-26
2022/10/30 00:14:47;;;;;;;10.35;4.60;;;19.70;95.60;;;;;;10443230;28;20106;-28
2022/10/30 00:19:49;;;;;;;8.32;3.50;;;19.70;96.30;;;;;;10445745;28;20103;-27
2022/10/30 00:24:53;;;;;;;;;;;20.20;94.80;;;;;;10455382;28;20128;-27
2022/10/30 00:29:55;;;;;;;7.55;3.70;;;19.80;95.50;;;;;;10439836;28;19920;-26
2022/10/30 00:34:56;;;;;;;9.88;4.55;;;20.00;95.60;;;;;;10459191;28;20115;-26
2022/10/30 00:40:00;;;;;;;20.52;5.78;;;20.40;94.50;;;;;;10459394;28;20052;-26
2022/10/30 00:45:02;;;;;;;7.68;4.07;;;20.30;94.60;;;;;;10458402;28;20088;-28
2022/10/30 00:50:09;;;;;;;16.35;5.53;;;20.20;94.70;;;;;;10454547;28;20057;-29
2022/10/30 00:55:18;;;;;;;6.45;3.00;;;20.80;93.10;;;;;;10442110;28;20049;-26
2022/10/30 01:00:22;;;;;;;5.38;3.17;;;21.00;92.80;;;;;;10458164;28;20136;-26
2022/10/30 01:05:27;;;;;;;6.57;2.78;;;21.10;91.80;;;;;;10446824;28;20055;-25
2022/10/30 01:10:30;;;;;;;10.57;2.90;;;21.00;92.80;;;;;;10458964;28;20049;-27
2022/10/30 01:15:36;;;;;;;4.63;2.60;;;21.00;92.30;;;;;;10456386;28;20126;-26
2022/10/30 01:21:03;;;;;;;15.25;4.57;;;21.10;91.60;;;;;;10461422;28;20131;-27
2022/10/30 01:26:17;;;;;;;6.30;2.53;;;20.90;92.00;;;;;;10440029;28;20560;-27
2022/10/30 01:31:31;;;;;;;9.20;3.60;;;21.00;92.40;;;;;;10441843;28;20061;-27
2022/10/30 01:36:38;;;;;;;5.45;2.63;;;21.00;92.40;;;;;;10460007;28;20090;-28
2022/10/30 01:41:42;;;;;;;8.45;2.92;;;21.20;91.70;;;;;;10437364;28;20038;-27
2022/10/30 01:46:55;;;;;;;5.53;2.97;;;21.20;91.60;;;;;;10441914;28;20049;-25
2022/10/30 01:52:05;;;;;;;5.47;2.65;;;21.20;91.80;;;;;;10445640;28;20048;-26
2022/10/30 01:57:16;;;;;;;4.88;2.50;;;21.20;91.70;;;;;;10441895;28;20049;-25
2022/10/30 02:02:18;;;;;;;8.60;2.72;;;21.20;91.80;;;;;;10447273;28;20059;-27
2022/10/30 02:07:20;;;;;;;4.43;2.97;;;21.20;91.70;;;;;;10453585;28;20037;-28
2022/10/30 02:12:25;;;;;;;8.80;2.70;;;21.30;91.30;;;;;;10448351;28;20102;-26
2022/10/30 02:17:28;;;;;;;21.55;5.95;;;21.20;91.50;;;;;;10433937;28;20405;-26
2022/10/30 02:22:31;;;;;;;10.48;3.28;;;20.70;91.40;;;;;;10453280;28;20489;-26
2022/10/30 02:27:33;;;;;;;3.55;2.10;;;20.60;93.20;;;;;;10445835;28;20041;-25
2022/10/30 02:32:35;;;;;;;6.03;2.95;;;21.00;92.00;;;;;;10440351;28;20065;-26
2022/10/30 02:37:38;;;;;;;;;;;21.10;91.70;;;;;;10429368;28;20049;-26
2022/10/30 02:42:40;;;;;;;5.07;2.45;;;21.10;91.60;;;;;;10444517;28;20425;-27
2022/10/30 02:47:42;;;;;;;4.35;2.53;;;21.10;91.60;;;;;;10432944;28;20048;-28
2022/10/30 02:52:45;;;;;;;4.28;2.78;;;21.30;91.20;;;;;;10433159;28;20457;-28
2022/10/30 02:57:47;;;;;;;5.75;2.80;;;21.30;91.10;;;;;;10443489;28;20064;-25
2022/10/30 03:02:54;;;;;;;4.00;2.72;;;21.30;91.00;;;;;;10464598;28;20076;-29
2022/10/30 03:07:57;;;;;;;4.75;2.50;;;21.30;91.10;;;;;;10438170;28;20053;-27
2022/10/30 03:12:59;;;;;;;5.10;2.88;;;21.30;91.10;;;;;;10433496;28;20042;-27
2022/10/30 03:18:00;;;;;;;5.20;2.28;;;21.30;91.00;;;;;;10456260;28;20477;-28
2022/10/30 03:23:04;;;;;;;5.57;2.30;;;21.30;91.00;;;;;;10447499;28;20041;-29
2022/10/30 03:28:05;;;;;;;3.22;2.15;;;21.30;91.00;;;;;;10450088;28;20478;-28
2022/10/30 03:33:07;;;;;;;3.28;2.20;;;21.30;91.00;;;;;;10469955;28;20072;-27
2022/10/30 03:38:10;;;;;;;4.88;2.60;;;21.30;91.00;;;;;;10465276;28;20144;-24
2022/10/30 03:43:12;;;;;;;4.28;2.17;;;21.30;91.00;;;;;;10466746;28;20477;-28
2022/10/30 03:48:14;;;;;;;2.05;1.85;;;21.30;91.10;;;;;;10458263;28;20410;-28
2022/10/30 03:53:18;;;;;;;4.95;2.75;;;21.30;91.00;;;;;;10437901;28;20143;-31
2022/10/30 03:58:20;;;;;;;5.35;2.22;;;21.20;91.10;;;;;;10442529;28;20040;-29
2022/10/30 04:03:22;;;;;;;5.85;2.53;;;21.30;91.10;;;;;;10458586;28;20072;-27
2022/10/30 04:08:25;;;;;;;3.45;2.63;;;21.20;91.10;;;;;;10435532;28;20085;-29
2022/10/30 04:13:27;;;;;;;6.63;3.00;;;21.30;91.10;;;;;;10442946;28;20072;-29
2022/10/30 04:18:29;;;;;;;6.10;3.15;;;21.20;91.20;;;;;;10472272;28;20147;-27
2022/10/30 04:23:32;;;;;;;6.68;2.40;;;21.20;91.20;;;;;;10459036;28;20131;-26
2022/10/30 04:28:34;;;;;;;6.00;2.53;;;21.20;91.20;;;;;;10464136;28;20144;-26
2022/10/30 04:33:36;;;;;;;5.28;2.25;;;21.20;91.20;;;;;;10449189;28;20076;-26
2022/10/30 04:38:39;;;;;;;6.47;3.72;;;21.20;91.30;;;;;;10460311;28;20077;-30
2022/10/30 04:43:41;;;;;;;3.35;2.25;;;21.10;91.30;;;;;;10446573;28;20077;-27
2022/10/30 04:48:43;;;;;;;4.25;2.35;;;21.10;91.40;;;;;;10469760;28;20106;-28
2022/10/30 04:53:46;;;;;;;4.18;2.35;;;21.20;91.30;;;;;;10452763;28;20470;-25
2022/10/30 04:58:48;;;;;;;4.43;2.50;;;21.10;91.40;;;;;;10457895;28;20143;-26
2022/10/30 05:03:50;;;;;;;5.50;2.50;;;21.10;91.30;;;;;;10452471;28;20041;-25
2022/10/30 05:08:54;;;;;;;5.75;2.67;;;21.10;91.30;;;;;;10456008;28;20085;-25
2022/10/30 05:13:56;;;;;;;4.15;2.65;;;21.10;91.30;;;;;;10450234;28;20159;-26
2022/10/30 05:18:59;;;;;;;3.58;2.40;;;21.10;91.40;;;;;;10451375;28;20102;-26
2022/10/30 05:24:02;;;;;;;6.75;2.33;;;21.10;91.40;;;;;;10451236;28;20128;-26
2022/10/30 05:29:04;;;;;;;4.30;2.65;;;21.10;91.40;;;;;;10451065;28;20131;-28
2022/10/30 05:34:05;;;;;;;4.75;3.25;;;21.00;91.50;;;;;;10445778;28;20454;-28
2022/10/30 05:39:09;;;;;;;4.60;2.38;;;21.00;91.40;;;;;;10449695;28;20084;-26
2022/10/30 05:44:11;;;;;;;5.22;2.58;;;21.00;91.50;;;;;;10446667;28;20045;-29
2022/10/30 05:49:13;;;;;;;6.03;2.53;;;21.00;91.50;;;;;;10455497;28;20136;-31
2022/10/30 05:54:16;;;;;;;6.60;2.90;;;21.00;91.50;;;;;;10455553;28;20131;-25
2022/10/30 05:59:18;;;;;;;6.88;3.08;;;21.00;91.50;;;;;;10451885;28;20140;-26
2022/10/30 06:04:19;;;;;;;5.57;3.13;;;21.00;91.60;;;;;;10459994;28;20076;-25
2022/10/30 06:09:23;;;;;;;3.95;2.45;;;21.00;91.50;;;;;;10449160;28;20044;-25
2022/10/30 06:14:25;;;;;;;5.60;3.03;;;20.90;91.60;;;;;;10443516;28;20049;-26
2022/10/30 06:19:26;;;;;;;4.20;2.38;;;20.90;91.60;;;;;;10429386;28;20530;-25
2022/10/30 06:24:30;;;;;;;5.20;1.98;;;20.90;91.70;;;;;;10456298;28;20072;-25
2022/10/30 06:29:32;;;;;;;5.40;2.65;;;21.00;91.70;;;;;;10474529;28;20139;-27
2022/10/30 06:34:33;;;;;;;4.88;2.90;;;20.90;91.60;;;;;;10471904;28;20099;-27
2022/10/30 06:39:37;;;;;;;5.20;3.25;;;20.90;91.70;;;;;;10475317;28;20045;-26
2022/10/30 06:44:38;;;;;;;4.22;2.50;;;20.90;91.60;;;;;;10459425;28;20155;-27
2022/10/30 06:49:41;;;;;;;5.65;2.85;;;20.90;91.60;;;;;;10467815;28;20052;-26
2022/10/30 06:54:44;;;;;;;5.85;2.65;;;20.90;91.70;;;;;;10486000;28;20049;-26
2022/10/30 06:59:46;;;;;;;3.97;2.65;;;20.90;91.70;;;;;;10456619;28;20059;-29
2022/10/30 07:04:48;;;;;;;12.10;4.50;;;20.90;91.70;;;;;;10430819;28;20080;-25
2022/10/30 07:09:51;;;;;;;4.90;2.40;;;20.90;91.60;;;;;;10435442;28;20090;-28
2022/10/30 07:14:53;;;;;;;7.70;2.38;;;20.90;91.60;;;;;;10428493;28;20042;-27
2022/10/30 07:19:55;;;;;;;5.10;2.45;;;20.90;91.60;;;;;;10432277;28;20512;-27
2022/10/30 07:24:58;;;;;;;3.42;2.53;;;20.90;91.60;;;;;;10434006;28;20111;-27
2022/10/30 07:30:00;;;;;;;4.47;2.72;;;20.90;91.60;;;;;;10428091;28;20045;-27
2022/10/30 07:35:02;;;;;;;3.30;2.50;;;20.90;91.50;;;;;;10428451;28;20440;-26
2022/10/30 07:40:06;;;;;;;3.35;2.40;;;20.90;91.60;;;;;;10447951;28;20080;-26
2022/10/30 07:45:09;;;;;;;3.92;2.30;;;20.90;91.50;;;;;;10423486;28;21487;-26
2022/10/30 07:50:11;;;;;;;3.80;2.70;;;20.90;91.60;;;;;;10453193;28;20064;-27
2022/10/30 07:55:15;;;;;;;3.78;2.25;;;20.90;91.60;;;;;;10477871;28;20068;-26
2022/10/30 08:00:17;;;;;;;5.20;2.40;;;20.90;91.50;;;;;;10458201;28;20118;-27
2022/10/30 08:05:19;;;;;;;5.60;2.65;;;21.00;91.50;;;;;;10447007;28;20107;-26
2022/10/30 08:10:22;;;;;;;3.20;2.80;;;20.90;91.40;;;;;;10435075;28;20048;-26
2022/10/30 08:15:24;;;;;;;6.38;2.83;;;21.00;91.50;;;;;;10445783;28;20456;-25
2022/10/30 08:20:26;;;;;;;;;;;21.00;91.60;;;;;;10436416;28;20738;-26
2022/10/30 08:25:30;;;;;;;3.92;2.53;;;21.00;91.60;;;;;;10450257;28;20384;-27
2022/10/30 08:30:34;;;;;;;6.70;2.65;;;21.00;91.70;;;;;;10451902;28;20048;-26
2022/10/30 08:35:36;;;;;;;6.15;2.50;;;21.00;91.60;;;;;;10463817;28;20095;-26
2022/10/30 08:40:39;;;;;;;5.90;2.60;;;21.00;91.60;;;;;;10449404;28;20053;-26
2022/10/30 08:45:41;;;;;;;4.68;2.75;;;21.10;91.60;;;;;;10427695;28;20076;-25
2022/10/30 08:50:43;;;;;;;7.28;3.00;;;21.00;91.70;;;;;;10437855;28;20052;-27
2022/10/30 08:55:46;;;;;;;8.13;2.67;;;21.20;91.60;;;;;;10435581;28;20073;-27
2022/10/30 09:00:48;;;;;;;3.47;2.40;;;21.10;91.60;;;;;;10443953;28;20666;-24
2022/10/30 09:05:50;;;;;;;10.18;2.65;;;21.50;92.00;;;;;;10446814;28;20143;-26
2022/10/30 09:10:55;;;;;;;8.20;2.38;;;21.40;91.50;;;;;;10445812;28;20531;-26
2022/10/30 09:16:00;;;;;;;5.93;2.60;;;21.40;91.50;;;;;;10450612;28;20268;-25
2022/10/30 09:21:02;;;;;;;5.78;2.85;;;21.40;91.30;;;;;;10438964;28;20409;-27
2022/10/30 09:26:05;;;;;;;2.97;2.30;;;21.40;91.40;;;;;;10460136;28;20068;-31
2022/10/30 09:31:07;;;;;;;8.48;3.13;;;21.50;91.30;;;;;;10454487;28;20077;-30
2022/10/30 09:36:09;;;;;;;4.30;2.50;;;21.50;91.40;;;;;;10453940;28;20090;-27
2022/10/30 09:41:29;;;;;;;10.27;2.80;;;21.50;91.50;;;;;;10446788;28;20087;-27
2022/10/30 09:46:51;;;;;;;6.95;3.17;;;21.50;91.30;;;;;;10454849;28;20067;-27
2022/10/30 09:52:07;;;;;;;;;;;21.60;91.30;;;;;;10459099;28;20090;-27
2022/10/30 09:57:19;;;;;;;10.70;3.05;;;21.60;91.40;;;;;;10463954;28;19971;-25
2022/10/30 10:02:32;;;;;;;10.45;3.00;;;21.70;91.40;;;;;;10444879;28;20573;-26
2022/10/30 10:07:40;;;;;;;8.65;3.55;;;21.70;91.30;;;;;;10453399;28;20092;-26
2022/10/30 10:12:47;;;;;;;12.02;3.75;;;21.70;91.50;;;;;;10442116;28;20056;-27
2022/10/30 10:17:49;;;;;;;15.13;4.45;;;21.80;91.40;;;;;;10439837;28;20044;-26
2022/10/30 10:22:51;;;;;;;7.32;2.95;;;21.70;91.40;;;;;;10452989;28;20124;-29
2022/10/30 10:28:06;;;;;;;13.48;5.70;;;21.80;91.30;;;;;;10454622;28;20040;-25
2022/10/30 10:33:28;;;;;;;8.05;3.35;;;21.30;92.40;;;;;;10451363;28;20061;-26
2022/10/30 10:38:49;;;;;;;8.60;3.80;;;21.40;92.70;;;;;;10436052;28;20486;-29
2022/10/30 10:44:04;;;;;;;11.20;3.40;;;21.70;91.60;;;;;;10449904;28;20085;-26
2022/10/30 10:49:23;;;;;;;5.22;3.15;;;21.50;92.60;;;;;;10444675;28;20469;-26
2022/10/30 10:54:29;;;;;;;12.65;4.55;;;21.70;92.00;;;;;;10449651;28;20048;-26
2022/10/30 10:59:37;;;;;;;5.43;3.03;;;21.00;93.40;;;;;;10455001;28;20069;-29
2022/10/30 11:04:41;;;;;;;8.65;3.13;;;20.90;94.00;;;;;;10445136;28;20411;-26
2022/10/30 11:09:44;;;;;;;9.55;3.67;;;21.50;92.20;;;;;;10462866;28;20053;-26
2022/10/30 11:14:47;;;;;;;6.25;3.15;;;21.60;91.70;;;;;;10455565;28;20127;-26
2022/10/30 11:19:52;;;;;;;8.52;3.70;;;21.70;91.70;;;;;;10457281;28;20052;-26
2022/10/30 11:24:53;;;;;;;7.15;3.45;;;21.70;91.70;;;;;;10464239;28;20053;-25
2022/10/30 11:30:00;;;;;;;15.43;4.45;;;21.90;91.30;;;;;;10448990;28;20135;-27
2022/10/30 11:35:11;;;;;;;6.53;3.05;;;21.90;91.40;;;;;;10444848;28;20045;-26
2022/10/30 11:40:19;;;;;;;23.10;4.83;;;21.50;92.40;;;;;;10449738;28;20047;-27
2022/10/30 11:45:26;;;;;;;16.63;5.18;;;20.70;92.70;;;;;;10457004;28;20544;-26
2022/10/30 11:50:30;;;;;;;13.68;5.75;;;20.50;94.60;;;;;;10443966;28;20045;-27
2022/10/30 11:55:38;;;;;;;14.75;5.53;;;20.70;93.50;;;;;;10445767;28;20079;-26
2022/10/30 12:00:43;;;;;;;7.15;3.33;;;20.70;92.80;;;;;;10441284;28;20137;-29
2022/10/30 12:05:45;;;;;;;14.50;5.10;;;21.00;94.00;;;;;;10442318;28;20084;-26
2022/10/30 12:10:58;;;;;;;16.30;5.88;;;20.70;93.00;;;;;;10423614;28;20057;-28
2022/10/30 12:16:15;;;;;;;14.55;5.40;;;20.00;95.10;;;;;;10434714;28;20085;-28
2022/10/30 12:21:19;;;;;;;7.53;3.85;;;20.30;94.50;;;;;;10442121;28;20159;-28
2022/10/30 12:26:23;;;;;;;10.38;4.18;;;20.70;94.60;;;;;;10456076;28;20809;-24
2022/10/30 12:31:34;;;;;;;5.82;3.17;;;20.80;94.70;;;;;;10444610;28;20056;-25
2022/10/30 12:36:44;;;;;;;8.60;2.90;;;21.70;92.70;;;;;;10451994;28;20447;-26
2022/10/30 12:41:57;;;;;;;8.68;3.08;;;21.80;92.20;;;;;;10445102;28;20746;-25
2022/10/30 12:47:07;;;;;;;10.43;3.03;;;21.80;92.10;;;;;;10447530;28;20063;-27
2022/10/30 12:52:14;;;;;;;8.57;2.70;;;21.90;91.80;;;;;;10454359;28;20107;-30
2022/10/30 12:57:19;;;;;;;6.00;3.20;;;22.00;91.60;;;;;;10449662;28;20048;-26
2022/10/30 13:02:38;;;;;;;6.20;2.88;;;21.90;91.80;;;;;;10448779;28;20414;-32
2022/10/30 13:07:47;;;;;;;12.60;3.28;;;21.90;92.40;;;;;;10439481;28;20518;-26
2022/10/30 13:12:53;;;;;;;6.97;3.45;;;22.10;91.50;;;;;;10437726;28;20053;-26
2022/10/30 13:17:58;;;;;;;8.18;2.60;;;22.10;91.40;;;;;;10438331;28;20123;-25
2022/10/30 13:23:10;;;;;;;6.18;3.00;;;22.10;91.50;;;;;;10462291;28;20103;-27
2022/10/30 13:28:21;;;;;;;11.80;5.07;;;22.00;91.70;;;;;;10436821;28;20073;-26
2022/10/30 13:33:32;;;;;;;6.40;2.92;;;21.40;93.00;;;;;;10449913;28;20445;-24
2022/10/30 13:38:44;;;;;;;7.80;2.92;;;21.40;91.60;;;;;;10442921;28;20052;-26
2022/10/30 13:43:53;;;;;;;12.60;5.13;;;21.40;92.70;;;;;;10443298;28;20067;-24
2022/10/30 13:49:09;;;;;;;7.38;3.45;;;20.80;94.20;;;;;;10453346;28;20167;-26
2022/10/30 13:54:19;;;;;;;14.00;3.55;;;21.00;94.00;;;;;;10444159;28;20057;-25
2022/10/30 13:59:47;;;;;;;7.57;3.70;;;20.90;93.80;;;;;;10438856;28;20483;-27
2022/10/30 14:05:00;;;;;;;7.88;4.03;;;19.90;96.10;;;;;;10458869;28;20139;-27
2022/10/30 14:10:08;;;;;;;6.93;3.78;;;20.10;95.50;;;;;;10455004;28;20411;-26
2022/10/30 14:15:19;;;;;;;10.52;3.13;;;20.20;96.10;;;;;;10450067;28;20148;-26
2022/10/30 14:20:27;;;;;;;10.43;3.63;;;20.20;96.40;;;;;;10462731;28;20139;-26
2022/10/30 14:25:29;;;;;;;8.50;2.85;;;20.60;95.00;;;;;;10443075;28;20135;-26
2022/10/30 14:30:34;;;;;;;13.57;3.70;;;20.50;95.40;;;;;;10436362;28;20049;-25
2022/10/30 14:35:40;;;;;;;10.73;3.33;;;19.50;97.70;;;;;;10443652;28;20049;-26
2022/10/30 14:40:52;;;;;;;13.93;4.78;;;20.70;95.10;;;;;;10451987;28;20096;-26
2022/10/30 14:46:00;;;;;;;9.57;2.92;;;19.90;96.30;;;;;;10435095;28;20045;-25
2022/10/30 14:51:14;;;;;;;8.63;2.97;;;20.30;96.50;;;;;;10452344;28;20084;-27
2022/10/30 14:56:26;;;;;;;10.80;2.65;;;19.70;97.50;;;;;;10458572;28;20049;-27
2022/10/30 15:01:33;;;;;;;10.40;2.80;;;19.70;96.70;;;;;;10449390;28;20540;-28
2022/10/30 15:06:47;;;;;;;9.35;3.10;;;20.20;96.90;;;;;;10435337;28;20512;-25
2022/10/30 15:12:29;;;;;;;5.20;2.08;;;19.30;97.50;;;;;;10449207;28;20094;-29
2022/10/30 15:17:33;;;;;;;37.70;11.23;;;20.90;95.00;;;;;;10451741;28;20073;-27
2022/10/30 15:22:37;;;;;;;36.72;9.70;;;21.80;92.30;;;;;;10449129;28;20133;-28
2022/10/30 15:27:42;;;;;;;34.05;9.50;;;22.30;91.80;;;;;;10448530;28;20045;-28
2022/10/30 15:32:44;;;;;;;29.95;9.63;;;22.90;91.80;;;;;;10428915;28;20480;-25
2022/10/30 15:38:05;;;;;;;32.55;9.35;;;23.40;88.70;;;;;;10431125;28;20141;-29
2022/10/30 15:43:11;;;;;;;25.90;8.30;;;23.70;85.20;;;;;;10450133;28;20091;-26
2022/10/30 15:48:22;;;;;;;23.52;8.60;;;23.40;85.60;;;;;;10446019;28;20802;-27
2022/10/30 15:53:29;;;;;;;25.75;7.80;;;23.10;87.80;;;;;;10457377;28;20094;-28
2022/10/30 15:58:33;;;;;;;23.02;5.82;;;22.90;88.40;;;;;;10446951;28;20420;-28
2022/10/30 16:03:35;;;;;;;19.95;6.20;;;22.80;89.00;;;;;;10441919;28;20072;-26
2022/10/30 16:08:45;;;;;;;13.73;5.40;;;22.70;89.90;;;;;;10462051;28;20052;-29
2022/10/30 16:13:48;;;;;;;14.25;5.95;;;22.60;90.20;;;;;;10447802;28;20060;-27
2022/10/30 16:18:50;;;;;;;13.27;4.38;;;22.50;90.40;;;;;;10451386;28;20115;-35
2022/10/30 16:23:59;;;;;;;11.10;4.00;;;22.50;90.40;;;;;;10457775;28;20498;-27
2022/10/30 16:29:08;;;;;;;10.55;2.95;;;22.40;90.40;;;;;;10443196;28;20478;-27
2022/10/30 16:34:15;;;;;;;11.77;4.38;;;22.20;90.00;;;;;;10443979;28;20413;-30
2022/10/30 16:39:20;;;;;;;10.82;3.70;;;22.00;91.50;;;;;;10435410;28;20100;-28
2022/10/30 16:44:27;;;;;;;9.82;3.00;;;21.90;91.30;;;;;;10439187;28;20144;-33
2022/10/30 16:49:31;;;;;;;7.13;2.65;;;21.80;92.00;;;;;;10438319;28;20174;-27
2022/10/30 16:54:37;;;;;;;10.23;3.10;;;21.90;91.20;;;;;;10428854;28;20051;-29
2022/10/30 16:59:49;;;;;;;8.80;3.28;;;21.70;91.80;;;;;;10435618;28;20121;-34
2022/10/30 17:04:55;;;;;;;11.23;3.05;;;21.80;91.60;;;;;;10426329;28;20132;-29
2022/10/30 17:09:58;;;;;;;7.43;1.25;;;21.70;91.70;;;;;;10424348;28;20134;-29
2022/10/30 17:15:11;;;;;;;5.78;1.52;;;19.80;93.60;;;;;;10441628;28;20060;-28
2022/10/30 17:20:25;;;;;;;5.07;1.02;;;19.00;95.40;;;;;;10455092;28;20507;-26
2022/10/30 17:25:35;;;;;;;12.07;2.70;;;18.50;99.20;;;;;;10449532;28;20518;-27
2022/10/30 17:30:41;;;;;;;4.47;1.38;;;19.90;96.10;;;;;;10457196;28;20122;-28
2022/10/30 17:35:43;;;;;;;4.63;0.90;;;19.70;96.50;;;;;;10435324;28;20609;-31
2022/10/30 17:40:46;;;;;;;6.10;1.27;;;18.60;99.50;;;;;;10438033;28;20094;-31
2022/10/30 17:45:48;;;;;;;5.65;1.17;;;18.60;97.70;;;;;;10420225;28;20057;-28
2022/10/30 17:50:49;;;;;;;3.55;0.95;;;18.30;99.90;;;;;;10421334;28;20136;-31
2022/10/30 17:55:58;;;;;;;6.03;0.93;;;19.00;97.70;;;;;;10437718;28;20128;-33
2022/10/30 18:01:00;;;;;;;2.90;0.77;;;18.30;98.40;;;;;;10438639;28;20080;-28
2022/10/30 18:06:04;;;;;;;5.93;0.77;;;18.90;97.20;;;;;;10433183;28;20058;-30
2022/10/30 18:11:10;;;;;;;5.72;1.00;;;17.40;99.90;;;;;;10436744;28;20076;-28
2022/10/30 18:16:13;;;;;;;4.88;1.50;;;17.00;98.10;;;;;;10471652;28;20453;-28
2022/10/30 18:21:17;;;;;;;5.35;1.33;;;16.80;99.50;;;;;;10457427;28;20041;-28
2022/10/30 18:26:22;;;;;;;2.85;0.85;;;17.30;97.30;;;;;;10454825;28;20056;-28
2022/10/30 18:31:24;;;;;;;10.65;1.25;;;16.80;99.90;;;;;;10451344;28;20076;-26
2022/10/30 18:36:27;;;;;;;3.23;0.97;;;16.20;99.90;;;;;;10445759;28;20103;-29
2022/10/30 18:41:33;;;;;;;5.30;1.48;;;16.60;99.90;;;;;;10441273;28;20153;-28
2022/10/30 18:46:35;;;;;;;4.43;1.17;;;17.00;99.90;;;;;;10427742;28;20148;-32
2022/10/30 18:51:37;;;;;;;3.20;1.07;;;17.80;99.90;;;;;;10431552;28;20135;-28
2022/10/30 18:56:40;;;;;;;3.93;1.33;;;17.80;97.00;;;;;;10411387;28;20045;-27
2022/10/30 19:01:42;;;;;;;1.98;0.70;;;18.80;99.20;;;;;;10422008;28;20544;-27
2022/10/30 19:06:44;;;;;;;4.20;0.70;;;18.90;96.60;;;;;;10426670;28;20076;-27
2022/10/30 19:11:47;;;;;;;3.20;0.70;;;19.70;97.70;;;;;;10437565;28;20053;-27
2022/10/30 19:16:49;;;;;;;4.88;1.00;;;20.30;93.20;;;;;;10446679;28;20084;-28
2022/10/30 19:21:51;;;;;;;2.50;1.38;;;20.20;95.80;;;;;;10438665;28;20132;-27
2022/10/30 19:26:54;;;;;;;3.30;1.20;;;20.00;95.80;;;;;;10431663;28;20073;-27
2022/10/30 19:31:56;;;;;;;4.72;0.80;;;20.20;94.70;;;;;;10435872;28;20486;-27
2022/10/30 19:36:58;;;;;;;3.95;1.23;;;20.20;94.90;;;;;;10426761;28;20134;-27
2022/10/30 19:42:01;;;;;;;3.78;0.90;;;20.50;94.20;;;;;;10431557;28;20049;-28
2022/10/30 19:47:03;;;;;;;3.92;0.93;;;20.10;93.70;;;;;;10444754;28;20072;-29
2022/10/30 19:52:05;;;;;;;5.30;1.08;;;19.60;97.20;;;;;;10429801;28;20057;-28
2022/10/30 19:57:13;;;;;;;2.35;0.70;;;20.50;94.80;;;;;;10431431;28;20122;-28
2022/10/30 20:02:14;;;;;;;3.58;1.02;;;20.30;90.50;;;;;;10444355;28;20103;-28
2022/10/30 20:07:17;;;;;;;4.30;0.70;;;20.20;89.90;;;;;;10434704;28;20049;-30
2022/10/30 20:12:20;;;;;;;2.92;0.75;;;20.30;95.20;;;;;;10446560;28;20106;-29
2022/10/30 20:17:22;;;;;;;4.88;1.27;;;20.10;94.80;;;;;;10443415;28;20480;-30
2022/10/30 20:22:24;;;;;;;2.88;0.95;;;20.10;95.00;;;;;;10464535;28;20071;-27
2022/10/30 20:27:27;;;;;;;1.63;0.60;;;20.10;95.40;;;;;;10461728;28;20412;-28
2022/10/30 20:32:29;;;;;;;6.32;0.80;;;20.90;93.10;;;;;;10456691;28;20049;-29
2022/10/30 20:37:31;;;;;;;4.43;0.60;;;21.00;92.10;;;;;;10463166;28;20132;-28
2022/10/30 20:42:34;;;;;;;;;;;21.10;90.50;;;;;;10459616;28;20052;-33
2022/10/30 20:47:36;;;;;;;1.50;0.50;;;21.10;91.80;;;;;;10438186;28;20386;-32
2022/10/30 20:52:38;;;;;;;4.82;1.10;;;20.90;91.30;;;;;;10432249;28;20142;-30
2022/10/30 20:57:41;;;;;;;7.25;1.20;;;21.10;92.20;;;;;;10443019;28;20178;-28
2022/10/30 21:02:43;;;;;;;2.38;0.95;;;20.90;92.60;;;;;;10441219;28;20056;-30
2022/10/30 21:07:45;;;;;;;2.53;0.90;;;21.20;91.70;;;;;;10443019;28;20103;-29
2022/10/30 21:12:48;;;;;;;9.77;0.88;;;21.30;91.50;;;;;;10436092;28;20068;-28
2022/10/30 21:17:50;;;;;;;6.43;0.60;;;21.10;91.30;;;;;;10440907;28;20135;-29
2022/10/30 21:22:52;;;;;;;4.97;0.95;;;21.10;91.70;;;;;;10433076;28;20044;-26
2022/10/30 21:27:57;;;;;;;6.80;0.93;;;21.10;91.90;;;;;;10441992;28;20052;-30
2022/10/30 21:32:59;;;;;;;6.38;1.13;;;20.60;93.00;;;;;;10441522;28;20485;-28
2022/10/30 21:38:01;;;;;;;3.13;0.73;;;20.60;93.20;;;;;;10440767;28;20064;-29
2022/10/30 21:43:04;;;;;;;;;;;20.90;89.70;;;;;;10447664;28;20080;-29
2022/10/30 21:48:06;;;;;;;4.22;0.50;;;20.90;92.10;;;;;;10434526;28;19971;-31
2022/10/30 21:53:08;;;;;;;1.10;0.43;;;20.70;92.30;;;;;;10442912;28;20135;-29
2022/10/30 21:58:11;;;;;;;3.38;0.60;;;20.60;90.30;;;;;;10434887;28;20136;-29
2022/10/30 22:03:14;;;;;;;1.55;0.60;;;20.10;92.60;;;;;;10436349;28;20083;-30
2022/10/30 22:08:17;;;;;;;;;;;20.20;93.90;;;;;;10432078;28;20053;-29
2022/10/30 22:13:20;;;;;;;5.50;0.75;;;20.20;93.80;;;;;;10436973;28;19978;-28
2022/10/30 22:18:22;;;;;;;5.93;1.27;;;20.00;94.60;;;;;;10437327;28;20056;-30
2022/10/30 22:23:24;;;;;;;1.92;0.73;;;20.80;92.20;;;;;;10424962;28;20080;-28
2022/10/30 22:28:28;;;;;;;1.83;0.70;;;20.70;92.70;;;;;;10453341;28;20551;-27
2022/10/30 22:33:30;;;;;;;3.42;1.02;;;20.40;92.70;;;;;;10453344;28;20448;-28
2022/10/30 22:38:32;;;;;;;3.78;0.82;;;20.10;91.20;;;;;;10446527;28;20072;-27
2022/10/30 22:43:36;;;;;;;4.28;1.00;;;20.40;93.30;;;;;;10437365;28;20052;-28
2022/10/30 22:48:38;;;;;;;2.30;0.60;;;20.20;93.60;;;;;;10438362;28;20041;-27
2022/10/30 22:53:40;;;;;;;2.67;1.25;;;19.70;91.50;;;;;;10464171;28;20856;-29
2022/10/30 22:58:44;;;;;;;;;;;20.20;93.70;;;;;;10450979;28;20072;-30
2022/10/30 23:03:46;;;;;;;4.88;0.70;;;19.70;90.60;;;;;;10446237;28;19924;-28
2022/10/30 23:08:48;;;;;;;5.20;1.08;;;19.40;95.20;;;;;;10450966;28;20055;-26
2022/10/30 23:13:51;;;;;;;4.90;0.95;;;19.70;91.90;;;;;;10445826;28;20080;-28
2022/10/30 23:18:54;;;;;;;3.38;0.88;;;20.50;91.90;;;;;;10432697;28;20057;-26
2022/10/30 23:23:57;;;;;;;3.70;0.70;;;20.80;91.60;;;;;;10456768;28;20049;-31
2022/10/30 23:29:01;;;;;;;2.35;0.82;;;20.80;91.50;;;;;;10457929;28;20049;-28
2022/10/30 23:34:05;;;;;;;3.25;0.55;;;20.60;91.70;;;;;;10470714;28;20052;-27
2022/10/30 23:39:10;;;;;;;2.40;0.70;;;20.90;91.10;;;;;;10476447;28;20450;-27
2022/10/30 23:44:14;;;;;;;10.85;0.90;;;20.10;92.80;;;;;;10463843;28;20130;-27
2022/10/30 23:49:16;;;;;;;1.58;0.50;;;20.20;93.40;;;;;;10458104;28;20409;-28
2022/10/30 23:54:18;;;;;;;5.70;1.08;;;20.10;93.70;;;;;;10458047;28;20057;-29
2022/10/30 23:59:21;;;;;;;1.50;0.68;;;20.60;92.00;;;;;;10455880;28;20052;-28
